sensor_id;sensor_type;location;lat;lon;timestamp;pressure;altitude;pressure_sealevel;temperature
19568;BMP280;9930;49.240;8.548;2024-03-02T00:00:10;99322.41;;;9.40
19568;BMP280;9930;49.240;8.548;2024-03-02T00:02:43;99315.56;;;9.37
19568;BMP280;9930;49.240;8.548;2024-03-02T00:05:21;99328.41;;;9.42
19568;BMP280;9930;49.240;8.548;2024-03-02T00:07:55;99331.84;;;9.44
19568;BMP280;9930;49.240;8.548;2024-03-02T00:10:39;99320.63;;;9.36
19568;BMP280;9930;49.240;8.548;2024-03-02T00:13:08;99325.00;;;9.41
19568;BMP280;9930;49.240;8.548;2024-03-02T00:18:12;99317.31;;;9.40
19568;BMP280;9930;49.240;8.548;2024-03-02T00:20:39;99312.22;;;9.40
19568;BMP280;9930;49.240;8.548;2024-03-02T00:23:10;99302.75;;;9.34
19568;BMP280;9930;49.240;8.548;2024-03-02T00:25:41;99318.16;;;9.39
19568;BMP280;9930;49.240;8.548;2024-03-02T00:28:35;99307.94;;;9.37
19568;BMP280;9930;49.240;8.548;2024-03-02T00:31:05;99315.56;;;9.37
19568;BMP280;9930;49.240;8.548;2024-03-02T00:33:43;99293.25;;;9.27
19568;BMP280;9930;49.240;8.548;2024-03-02T00:36:12;99318.84;;;9.33
19568;BMP280;9930;49.240;8.548;2024-03-02T00:38:56;99312.00;;;9.31
19568;BMP280;9930;49.240;8.548;2024-03-02T00:41:29;99315.41;;;9.31
19568;BMP280;9930;49.240;8.548;2024-03-02T00:44:07;99307.53;;;9.22
19568;BMP280;9930;49.240;8.548;2024-03-02T00:46:39;99321.25;;;9.27
19568;BMP280;9930;49.240;8.548;2024-03-02T00:49:16;99318.63;;;9.24
19568;BMP280;9930;49.240;8.548;2024-03-02T00:51:48;99315.06;;;9.18
19568;BMP280;9930;49.240;8.548;2024-03-02T00:54:14;99327.03;;;9.22
19568;BMP280;9930;49.240;8.548;2024-03-02T00:56:42;99317.56;;;9.16
19568;BMP280;9930;49.240;8.548;2024-03-02T00:59:10;99320.16;;;9.18
19568;BMP280;9930;49.240;8.548;2024-03-02T01:01:36;99318.44;;;9.17
19568;BMP280;9930;49.240;8.548;2024-03-02T01:04:01;99318.19;;;9.07
19568;BMP280;9930;49.240;8.548;2024-03-02T01:06:27;99331.03;;;9.12
19568;BMP280;9930;49.240;8.548;2024-03-02T01:08:53;99340.31;;;9.10
19568;BMP280;9930;49.240;8.548;2024-03-02T01:11:19;99334.31;;;9.08
19568;BMP280;9930;49.240;8.548;2024-03-02T01:13:47;99339.34;;;9.06
19568;BMP280;9930;49.240;8.548;2024-03-02T01:16:14;99343.38;;;8.98
19568;BMP280;9930;49.240;8.548;2024-03-02T01:18:41;99343.47;;;9.01
19568;BMP280;9930;49.240;8.548;2024-03-02T01:21:07;99345.09;;;8.99
19568;BMP280;9930;49.240;8.548;2024-03-02T01:23:33;99343.34;;;8.97
19568;BMP280;9930;49.240;8.548;2024-03-02T01:25:59;99338.00;;;8.88
19568;BMP280;9930;49.240;8.548;2024-03-02T01:28:25;99347.44;;;8.92
19568;BMP280;9930;49.240;8.548;2024-03-02T01:30:51;99338.91;;;8.90
19568;BMP280;9930;49.240;8.548;2024-03-02T01:33:17;99331.16;;;8.85
19568;BMP280;9930;49.240;8.548;2024-03-02T01:35:43;99326.81;;;8.81
19568;BMP280;9930;49.240;8.548;2024-03-02T01:38:09;99323.53;;;8.85
19568;BMP280;9930;49.240;8.548;2024-03-02T01:40:36;99301.09;;;8.70
19568;BMP280;9930;49.240;8.548;2024-03-02T01:43:04;99329.34;;;8.81
19568;BMP280;9930;49.240;8.548;2024-03-02T01:45:29;99310.31;;;8.67
19568;BMP280;9930;49.240;8.548;2024-03-02T01:47:56;99325.06;;;8.79
19568;BMP280;9930;49.240;8.548;2024-03-02T01:50:36;99311.47;;;8.78
19568;BMP280;9930;49.240;8.548;2024-03-02T01:53:02;99300.16;;;8.67
19568;BMP280;9930;49.240;8.548;2024-03-02T01:55:30;99311.34;;;8.73
19568;BMP280;9930;49.240;8.548;2024-03-02T01:57:57;99308.72;;;8.70
19568;BMP280;9930;49.240;8.548;2024-03-02T02:00:23;99307.69;;;8.64
19568;BMP280;9930;49.240;8.548;2024-03-02T02:02:52;99294.75;;;8.55
19568;BMP280;9930;49.240;8.548;2024-03-02T02:05:21;99305.13;;;8.62
19568;BMP280;9930;49.240;8.548;2024-03-02T02:07:47;99300.94;;;8.64
19568;BMP280;9930;49.240;8.548;2024-03-02T02:10:13;99302.56;;;8.62
19568;BMP280;9930;49.240;8.548;2024-03-02T02:12:39;99298.28;;;8.60
19568;BMP280;9930;49.240;8.548;2024-03-02T02:17:52;99299.88;;;8.56
19568;BMP280;9930;49.240;8.548;2024-03-02T02:20:18;99292.03;;;8.49
19568;BMP280;9930;49.240;8.548;2024-03-02T02:23:04;99290.25;;;8.46
19568;BMP280;9930;49.240;8.548;2024-03-02T02:25:35;99301.41;;;8.51
19568;BMP280;9930;49.240;8.548;2024-03-02T02:28:01;99297.00;;;8.44
19568;BMP280;9930;49.240;8.548;2024-03-02T02:30:32;99297.94;;;8.48
19568;BMP280;9930;49.240;8.548;2024-03-02T02:32:58;99284.25;;;8.42
19568;BMP280;9930;49.240;8.548;2024-03-02T02:35:25;99285.00;;;8.40
19568;BMP280;9930;49.240;8.548;2024-03-02T02:37:54;99279.84;;;8.37
19568;BMP280;9930;49.240;8.548;2024-03-02T02:40:21;99277.16;;;8.32
19568;BMP280;9930;49.240;8.548;2024-03-02T02:42:47;99269.44;;;8.29
19568;BMP280;9930;49.240;8.548;2024-03-02T02:45:13;99289.16;;;8.36
19568;BMP280;9930;49.240;8.548;2024-03-02T02:47:41;99286.56;;;8.35
19568;BMP280;9930;49.240;8.548;2024-03-02T02:50:07;99283.97;;;8.33
19568;BMP280;9930;49.240;8.548;2024-03-02T02:52:38;99286.44;;;8.32
19568;BMP280;9930;49.240;8.548;2024-03-02T02:55:08;99283.78;;;8.27
19568;BMP280;9930;49.240;8.548;2024-03-02T02:57:35;99272.50;;;8.18
19568;BMP280;9930;49.240;8.548;2024-03-02T03:00:10;99273.41;;;8.20
19568;BMP280;9930;49.240;8.548;2024-03-02T03:02:39;99264.78;;;8.15
19568;BMP280;9930;49.240;8.548;2024-03-02T03:05:08;99263.03;;;8.12
19568;BMP280;9930;49.240;8.548;2024-03-02T03:07:34;99255.31;;;8.09
19568;BMP280;9930;49.240;8.548;2024-03-02T03:10:02;99271.53;;;8.14
19568;BMP280;9930;49.240;8.548;2024-03-02T03:12:30;99269.72;;;8.10
19568;BMP280;9930;49.240;8.548;2024-03-02T03:14:57;99248.19;;;7.97
19568;BMP280;9930;49.240;8.548;2024-03-02T03:17:23;99267.16;;;8.08
19568;BMP280;9930;49.240;8.548;2024-03-02T03:19:49;99260.34;;;8.07
19568;BMP280;9930;49.240;8.548;2024-03-02T03:22:16;99251.59;;;7.98
19568;BMP280;9930;49.240;8.548;2024-03-02T03:24:42;99251.56;;;7.96
19568;BMP280;9930;49.240;8.548;2024-03-02T03:27:07;99266.97;;;8.02
19568;BMP280;9930;49.240;8.548;2024-03-02T03:29:33;99244.72;;;7.94
19568;BMP280;9930;49.240;8.548;2024-03-02T03:31:59;99258.44;;;8.00
19568;BMP280;9930;49.240;8.548;2024-03-02T03:34:25;99248.16;;;7.96
19568;BMP280;9930;49.240;8.548;2024-03-02T03:36:51;99249.78;;;7.94
19568;BMP280;9930;49.240;8.548;2024-03-02T03:39:16;99240.41;;;7.91
19568;BMP280;9930;49.240;8.548;2024-03-02T03:41:43;99235.28;;;7.90
19568;BMP280;9930;49.240;8.548;2024-03-02T03:44:09;99250.75;;;7.97
19568;BMP280;9930;49.240;8.548;2024-03-02T03:46:35;99244.72;;;7.94
19568;BMP280;9930;49.240;8.548;2024-03-02T03:49:00;99238.72;;;7.92
19568;BMP280;9930;49.240;8.548;2024-03-02T03:51:26;99252.41;;;7.97
19568;BMP280;9930;49.240;8.548;2024-03-02T03:53:52;99247.22;;;7.92
19568;BMP280;9930;49.240;8.548;2024-03-02T03:56:17;99244.59;;;7.89
19568;BMP280;9930;49.240;8.548;2024-03-02T03:58:43;99250.50;;;7.90
19568;BMP280;9930;49.240;8.548;2024-03-02T04:01:09;99259.22;;;7.98
19568;BMP280;9930;49.240;8.548;2024-03-02T04:03:34;99247.16;;;7.91
19568;BMP280;9930;49.240;8.548;2024-03-02T04:06:00;99258.19;;;7.91
19568;BMP280;9930;49.240;8.548;2024-03-02T04:08:26;99275.31;;;7.98
19568;BMP280;9930;49.240;8.548;2024-03-02T04:10:51;99266.03;;;7.99
19568;BMP280;9930;49.240;8.548;2024-03-02T04:13:17;99263.44;;;7.97
19568;BMP280;9930;49.240;8.548;2024-03-02T04:15:43;99262.47;;;7.94
19568;BMP280;9930;49.240;8.548;2024-03-02T04:18:11;99258.28;;;7.94
19568;BMP280;9930;49.240;8.548;2024-03-02T04:20:37;99251.38;;;7.90
19568;BMP280;9930;49.240;8.548;2024-03-02T04:23:05;99275.50;;;8.04
19568;BMP280;9930;49.240;8.548;2024-03-02T04:25:31;99267.88;;;8.04
19568;BMP280;9930;49.240;8.548;2024-03-02T04:27:57;99271.28;;;8.05
19568;BMP280;9930;49.240;8.548;2024-03-02T04:30:23;99263.47;;;7.99
19568;BMP280;9930;49.240;8.548;2024-03-02T04:32:49;99251.66;;;7.99
19568;BMP280;9930;49.240;8.548;2024-03-02T04:35:14;99260.13;;;8.00
19568;BMP280;9930;49.240;8.548;2024-03-02T04:37:40;99282.34;;;8.07
19568;BMP280;9930;49.240;8.548;2024-03-02T04:40:06;99267.78;;;8.01
19568;BMP280;9930;49.240;8.548;2024-03-02T04:42:36;99260.03;;;7.97
19568;BMP280;9930;49.240;8.548;2024-03-02T04:45:02;99268.47;;;7.96
19568;BMP280;9930;49.240;8.548;2024-03-02T04:47:28;99266.75;;;7.95
19568;BMP280;9930;49.240;8.548;2024-03-02T04:49:55;99279.56;;;7.99
19568;BMP280;9930;49.240;8.548;2024-03-02T04:52:21;99269.97;;;7.89
19568;BMP280;9930;49.240;8.548;2024-03-02T04:54:46;99280.94;;;7.88
19568;BMP280;9930;49.240;8.548;2024-03-02T04:57:31;99302.97;;;7.89
19568;BMP280;9930;49.240;8.548;2024-03-02T04:59:56;99290.81;;;7.79
19568;BMP280;9930;49.240;8.548;2024-03-02T05:02:22;99296.69;;;7.78
19568;BMP280;9930;49.240;8.548;2024-03-02T05:04:48;99290.66;;;7.74
19568;BMP280;9930;49.240;8.548;2024-03-02T05:07:14;99296.56;;;7.73
19568;BMP280;9930;49.240;8.548;2024-03-02T05:09:40;99287.88;;;7.67
19568;BMP280;9930;49.240;8.548;2024-03-02T05:12:08;99313.50;;;7.74
19568;BMP280;9930;49.240;8.548;2024-03-02T05:14:53;99318.47;;;7.71
19568;BMP280;9930;49.240;8.548;2024-03-02T05:17:18;99304.84;;;7.68
19568;BMP280;9930;49.240;8.548;2024-03-02T05:19:47;99311.59;;;7.67
19568;BMP280;9930;49.240;8.548;2024-03-02T05:22:13;99302.78;;;7.56
19568;BMP280;9930;49.240;8.548;2024-03-02T05:24:39;99317.34;;;7.62
19568;BMP280;9930;49.240;8.548;2024-03-02T05:27:04;99303.53;;;7.54
19568;BMP280;9930;49.240;8.548;2024-03-02T05:29:31;99306.03;;;7.52
19568;BMP280;9930;49.240;8.548;2024-03-02T05:31:57;99312.97;;;7.58
19568;BMP280;9930;49.240;8.548;2024-03-02T05:34:23;99313.69;;;7.54
19568;BMP280;9930;49.240;8.548;2024-03-02T05:36:48;99303.25;;;7.44
19568;BMP280;9930;49.240;8.548;2024-03-02T05:39:14;99312.69;;;7.48
19568;BMP280;9930;49.240;8.548;2024-03-02T05:41:41;99298.94;;;7.42
19568;BMP280;9930;49.240;8.548;2024-03-02T05:44:06;99306.66;;;7.45
19568;BMP280;9930;49.240;8.548;2024-03-02T05:46:32;99290.38;;;7.38
19568;BMP280;9930;49.240;8.548;2024-03-02T05:48:59;99300.63;;;7.41
19568;BMP280;9930;49.240;8.548;2024-03-02T05:51:27;99299.69;;;7.39
19568;BMP280;9930;49.240;8.548;2024-03-02T05:53:52;99292.63;;;7.29
19568;BMP280;9930;49.240;8.548;2024-03-02T05:56:18;99301.19;;;7.33
19568;BMP280;9930;49.240;8.548;2024-03-02T05:58:44;99306.25;;;7.33
19568;BMP280;9930;49.240;8.548;2024-03-02T06:01:33;99303.38;;;7.22
19568;BMP280;9930;49.240;8.548;2024-03-02T06:04:02;99287.19;;;7.19
19568;BMP280;9930;49.240;8.548;2024-03-02T06:06:27;99313.72;;;7.28
19568;BMP280;9930;49.240;8.548;2024-03-02T06:08:53;99313.50;;;7.22
19568;BMP280;9930;49.240;8.548;2024-03-02T06:11:20;99302.41;;;7.19
19568;BMP280;9930;49.240;8.548;2024-03-02T06:13:46;99304.06;;;7.18
19568;BMP280;9930;49.240;8.548;2024-03-02T06:16:11;99299.78;;;7.15
19568;BMP280;9930;49.240;8.548;2024-03-02T06:18:37;99307.41;;;7.17
19568;BMP280;9930;49.240;8.548;2024-03-02T06:21:03;99318.53;;;7.21
19568;BMP280;9930;49.240;8.548;2024-03-02T06:23:29;99297.22;;;7.15
19568;BMP280;9930;49.240;8.548;2024-03-02T06:25:55;99319.50;;;7.24
19568;BMP280;9930;49.240;8.548;2024-03-02T06:28:21;99320.31;;;7.23
19568;BMP280;9930;49.240;8.548;2024-03-02T06:30:47;99321.25;;;7.27
19568;BMP280;9930;49.240;8.548;2024-03-02T06:33:12;99315.22;;;7.23
19568;BMP280;9930;49.240;8.548;2024-03-02T06:35:38;99312.69;;;7.23
19568;BMP280;9930;49.240;8.548;2024-03-02T06:38:04;99318.03;;;7.31
19568;BMP280;9930;49.240;8.548;2024-03-02T06:40:30;99308.50;;;7.24
19568;BMP280;9930;49.240;8.548;2024-03-02T06:42:56;99319.75;;;7.32
19568;BMP280;9930;49.240;8.548;2024-03-02T06:45:22;99309.44;;;7.27
19568;BMP280;9930;49.240;8.548;2024-03-02T06:47:48;99324.88;;;7.33
19568;BMP280;9930;49.240;8.548;2024-03-02T06:50:14;99326.63;;;7.36
19568;BMP280;9930;49.240;8.548;2024-03-02T06:52:40;99325.88;;;7.38
19568;BMP280;9930;49.240;8.548;2024-03-02T06:55:06;99328.47;;;7.40
19568;BMP280;9930;49.240;8.548;2024-03-02T06:57:32;99314.78;;;7.35
19568;BMP280;9930;49.240;8.548;2024-03-02T06:59:57;99312.38;;;7.39
19568;BMP280;9930;49.240;8.548;2024-03-02T07:02:26;99327.03;;;7.48
19568;BMP280;9930;49.240;8.548;2024-03-02T07:04:53;99320.09;;;7.42
19568;BMP280;9930;49.240;8.548;2024-03-02T07:07:19;99322.06;;;7.51
19568;BMP280;9930;49.240;8.548;2024-03-02T07:09:45;99324.47;;;7.46
19568;BMP280;9930;49.240;8.548;2024-03-02T07:12:11;99335.75;;;7.56
19568;BMP280;9930;49.240;8.548;2024-03-02T07:14:36;99334.13;;;7.58
19568;BMP280;9930;49.240;8.548;2024-03-02T07:17:21;99324.66;;;7.53
19568;BMP280;9930;49.240;8.548;2024-03-02T07:19:46;99333.38;;;7.61
19568;BMP280;9930;49.240;8.548;2024-03-02T07:22:13;99341.09;;;7.64
19568;BMP280;9930;49.240;8.548;2024-03-02T07:24:42;99344.56;;;7.67
19568;BMP280;9930;49.240;8.548;2024-03-02T07:27:12;99342.94;;;7.69
19568;BMP280;9930;49.240;8.548;2024-03-02T07:29:39;99335.28;;;7.68
19568;BMP280;9930;49.240;8.548;2024-03-02T07:32:06;99336.25;;;7.71
19568;BMP280;9930;49.240;8.548;2024-03-02T07:34:32;99343.19;;;7.77
19568;BMP280;9930;49.240;8.548;2024-03-02T07:36:58;99355.34;;;7.87
19568;BMP280;9930;49.240;8.548;2024-03-02T07:39:25;99350.47;;;7.93
19568;BMP280;9930;49.240;8.548;2024-03-02T07:41:51;99343.81;;;7.97
19568;BMP280;9930;49.240;8.548;2024-03-02T07:44:17;99353.56;;;8.11
19568;BMP280;9930;49.240;8.548;2024-03-02T07:46:45;99346.13;;;8.18
19568;BMP280;9930;49.240;8.548;2024-03-02T07:49:18;99345.31;;;8.19
19568;BMP280;9930;49.240;8.548;2024-03-02T07:51:44;99353.47;;;8.35
19568;BMP280;9930;49.240;8.548;2024-03-02T07:54:10;99363.94;;;8.46
19568;BMP280;9930;49.240;8.548;2024-03-02T07:56:36;99353.06;;;8.50
19568;BMP280;9930;49.240;8.548;2024-03-02T07:59:03;99361.94;;;8.64
19568;BMP280;9930;49.240;8.548;2024-03-02T08:01:30;99353.56;;;8.68
19568;BMP280;9930;49.240;8.548;2024-03-02T08:04:01;99348.75;;;8.77
19568;BMP280;9930;49.240;8.548;2024-03-02T08:06:28;99356.66;;;8.88
19568;BMP280;9930;49.240;8.548;2024-03-02T08:08:58;99360.44;;;9.02
19568;BMP280;9930;49.240;8.548;2024-03-02T08:11:25;99356.53;;;9.15
19568;BMP280;9930;49.240;8.548;2024-03-02T08:13:53;99357.88;;;9.34
19568;BMP280;9930;49.240;8.548;2024-03-02T08:16:22;99339.59;;;9.49
19568;BMP280;9930;49.240;8.548;2024-03-02T08:18:49;99353.81;;;9.75
19568;BMP280;9930;49.240;8.548;2024-03-02T08:21:15;99352.53;;;9.92
19568;BMP280;9930;49.240;8.548;2024-03-02T08:23:45;99338.31;;;10.02
19568;BMP280;9930;49.240;8.548;2024-03-02T08:26:11;99350.69;;;10.23
19568;BMP280;9930;49.240;8.548;2024-03-02T08:28:37;99343.22;;;10.30
19568;BMP280;9930;49.240;8.548;2024-03-02T08:31:07;99344.41;;;10.49
19568;BMP280;9930;49.240;8.548;2024-03-02T08:33:33;99354.88;;;10.61
19568;BMP280;9930;49.240;8.548;2024-03-02T08:35:59;99348.28;;;10.71
19568;BMP280;9930;49.240;8.548;2024-03-02T08:38:27;99347.63;;;10.81
19568;BMP280;9930;49.240;8.548;2024-03-02T08:40:53;99346.88;;;10.87
19568;BMP280;9930;49.240;8.548;2024-03-02T08:43:19;99335.19;;;10.98
19568;BMP280;9930;49.240;8.548;2024-03-02T08:45:45;99342.25;;;11.13
19568;BMP280;9930;49.240;8.548;2024-03-02T08:48:11;99333.06;;;11.21
19568;BMP280;9930;49.240;8.548;2024-03-02T08:50:36;99344.38;;;11.35
19568;BMP280;9930;49.240;8.548;2024-03-02T08:53:03;99332.50;;;11.39
19568;BMP280;9930;49.240;8.548;2024-03-02T08:55:30;99341.25;;;11.53
19568;BMP280;9930;49.240;8.548;2024-03-02T08:57:57;99340.56;;;11.61
19568;BMP280;9930;49.240;8.548;2024-03-02T09:00:23;99331.28;;;11.66
19568;BMP280;9930;49.240;8.548;2024-03-02T09:02:55;99325.41;;;11.74
19568;BMP280;9930;49.240;8.548;2024-03-02T09:05:22;99328.16;;;11.84
19568;BMP280;9930;49.240;8.548;2024-03-02T09:07:47;99337.81;;;12.02
19568;BMP280;9930;49.240;8.548;2024-03-02T09:10:13;99334.53;;;12.12
19568;BMP280;9930;49.240;8.548;2024-03-02T09:12:39;99332.13;;;12.23
19568;BMP280;9930;49.240;8.548;2024-03-02T09:15:05;99330.56;;;12.34
19568;BMP280;9930;49.240;8.548;2024-03-02T09:17:34;99320.44;;;12.42
19568;BMP280;9930;49.240;8.548;2024-03-02T09:19:59;99325.69;;;12.52
19568;BMP280;9930;49.240;8.548;2024-03-02T09:22:25;99332.69;;;12.65
19568;BMP280;9930;49.240;8.548;2024-03-02T09:24:51;99321.63;;;12.68
19568;BMP280;9930;49.240;8.548;2024-03-02T09:27:17;99326.06;;;12.83
19568;BMP280;9930;49.240;8.548;2024-03-02T09:29:42;99332.16;;;12.94
19568;BMP280;9930;49.240;8.548;2024-03-02T09:32:12;99320.31;;;13.05
19568;BMP280;9930;49.240;8.548;2024-03-02T09:34:39;99308.38;;;13.06
19568;BMP280;9930;49.240;8.548;2024-03-02T09:37:04;99317.91;;;13.17
19568;BMP280;9930;49.240;8.548;2024-03-02T09:39:30;99308.53;;;13.19
19568;BMP280;9930;49.240;8.548;2024-03-02T09:41:58;99301.81;;;13.29
19568;BMP280;9930;49.240;8.548;2024-03-02T09:44:25;99314.75;;;13.46
19568;BMP280;9930;49.240;8.548;2024-03-02T09:46:52;99296.84;;;13.49
19568;BMP280;9930;49.240;8.548;2024-03-02T09:49:18;99307.22;;;13.64
19568;BMP280;9930;49.240;8.548;2024-03-02T09:51:48;99285.91;;;13.68
19568;BMP280;9930;49.240;8.548;2024-03-02T09:54:16;99301.41;;;13.86
19568;BMP280;9930;49.240;8.548;2024-03-02T09:56:42;99282.63;;;13.89
19568;BMP280;9930;49.240;8.548;2024-03-02T09:59:08;99291.25;;;14.02
19568;BMP280;9930;49.240;8.548;2024-03-02T10:01:34;99289.56;;;14.10
19568;BMP280;9930;49.240;8.548;2024-03-02T10:04:00;99291.31;;;14.17
19568;BMP280;9930;49.240;8.548;2024-03-02T10:06:29;99305.06;;;14.28
19568;BMP280;9930;49.240;8.548;2024-03-02T10:08:56;99296.50;;;14.29
19568;BMP280;9930;49.240;8.548;2024-03-02T10:11:32;99306.88;;;14.43
19568;BMP280;9930;49.240;8.548;2024-03-02T10:14:12;99289.75;;;14.42
19568;BMP280;9930;49.240;8.548;2024-03-02T10:16:43;99300.94;;;14.54
19568;BMP280;9930;49.240;8.548;2024-03-02T10:19:19;99304.38;;;14.63
19568;BMP280;9930;49.240;8.548;2024-03-02T10:21:55;99293.28;;;14.67
19568;BMP280;9930;49.240;8.548;2024-03-02T10:24:24;99289.00;;;14.75
19568;BMP280;9930;49.240;8.548;2024-03-02T10:26:51;99272.75;;;14.70
19568;BMP280;9930;49.240;8.548;2024-03-02T10:29:18;99294.19;;;14.93
19568;BMP280;9930;49.240;8.548;2024-03-02T10:31:45;99274.50;;;14.92
19568;BMP280;9930;49.240;8.548;2024-03-02T10:34:13;99271.09;;;14.99
19568;BMP280;9930;49.240;8.548;2024-03-02T10:36:43;99277.97;;;15.12
19568;BMP280;9930;49.240;8.548;2024-03-02T10:39:12;99265.97;;;15.14
19568;BMP280;9930;49.240;8.548;2024-03-02T10:41:38;99266.84;;;15.24
19568;BMP280;9930;49.240;8.548;2024-03-02T10:44:10;99282.25;;;15.38
19568;BMP280;9930;49.240;8.548;2024-03-02T10:46:37;99274.56;;;15.36
19568;BMP280;9930;49.240;8.548;2024-03-02T10:49:05;99272.84;;;15.44
19568;BMP280;9930;49.240;8.548;2024-03-02T10:51:33;99268.56;;;15.46
19568;BMP280;9930;49.240;8.548;2024-03-02T10:54:01;99274.53;;;15.64
19568;BMP280;9930;49.240;8.548;2024-03-02T10:56:32;99259.13;;;15.68
19568;BMP280;9930;49.240;8.548;2024-03-02T11:01:36;99246.22;;;15.85
19568;BMP280;9930;49.240;8.548;2024-03-02T11:04:08;99257.31;;;16.01
19568;BMP280;9930;49.240;8.548;2024-03-02T11:06:35;99245.31;;;16.03
19568;BMP280;9930;49.240;8.548;2024-03-02T11:09:07;99258.13;;;16.18
19568;BMP280;9930;49.240;8.548;2024-03-02T11:11:43;99255.53;;;16.27
19568;BMP280;9930;49.240;8.548;2024-03-02T11:14:16;99250.34;;;16.38
19568;BMP280;9930;49.240;8.548;2024-03-02T11:16:43;99237.47;;;16.41
19568;BMP280;9930;49.240;8.548;2024-03-02T11:19:15;99236.56;;;16.45
19568;BMP280;9930;49.240;8.548;2024-03-02T11:21:41;99230.50;;;16.58
19568;BMP280;9930;49.240;8.548;2024-03-02T11:24:30;99214.19;;;16.58
19568;BMP280;9930;49.240;8.548;2024-03-02T11:27:02;99225.34;;;16.67
19568;BMP280;9930;49.240;8.548;2024-03-02T11:32:14;99212.38;;;16.81
19568;BMP280;9930;49.240;8.548;2024-03-02T11:34:43;99210.63;;;16.84
19568;BMP280;9930;49.240;8.548;2024-03-02T11:37:11;99185.78;;;16.79
19568;BMP280;9930;49.240;8.548;2024-03-02T11:39:39;99195.13;;;16.92
19568;BMP280;9930;49.240;8.548;2024-03-02T11:42:08;99185.69;;;16.91
19568;BMP280;9930;49.240;8.548;2024-03-02T11:44:36;99201.91;;;17.04
19568;BMP280;9930;49.240;8.548;2024-03-02T11:47:07;99198.44;;;17.06
19568;BMP280;9930;49.240;8.548;2024-03-02T11:49:51;99176.13;;;17.05
19568;BMP280;9930;49.240;8.548;2024-03-02T11:52:18;99197.50;;;17.18
19568;BMP280;9930;49.240;8.548;2024-03-02T11:54:47;99173.44;;;17.21
19568;BMP280;9930;49.240;8.548;2024-03-02T11:57:16;99169.13;;;17.23
19568;BMP280;9930;49.240;8.548;2024-03-02T11:59:43;99182.75;;;17.32
19568;BMP280;9930;49.240;8.548;2024-03-02T12:02:18;99181.88;;;17.36
19568;BMP280;9930;49.240;8.548;2024-03-02T12:04:46;99158.69;;;17.33
19568;BMP280;9930;49.240;8.548;2024-03-02T12:07:22;99156.91;;;17.41
19568;BMP280;9930;49.240;8.548;2024-03-02T12:09:59;99155.19;;;17.42
19568;BMP280;9930;49.240;8.548;2024-03-02T12:12:25;99151.72;;;17.44
19568;BMP280;9930;49.240;8.548;2024-03-02T12:14:53;99157.69;;;17.48
19568;BMP280;9930;49.240;8.548;2024-03-02T12:17:22;99153.34;;;17.52
19568;BMP280;9930;49.240;8.548;2024-03-02T12:19:48;99141.38;;;17.46
19568;BMP280;9930;49.240;8.548;2024-03-02T12:22:14;99136.19;;;17.51
19568;BMP280;9930;49.240;8.548;2024-03-02T12:24:41;99134.44;;;17.54
19568;BMP280;9930;49.240;8.548;2024-03-02T12:27:12;99148.97;;;17.61
19568;BMP280;9930;49.240;8.548;2024-03-02T12:29:38;99145.50;;;17.64
19568;BMP280;9930;49.240;8.548;2024-03-02T12:32:05;99136.03;;;17.67
19568;BMP280;9930;49.240;8.548;2024-03-02T12:34:31;99135.16;;;17.70
19568;BMP280;9930;49.240;8.548;2024-03-02T12:36:57;99133.41;;;17.72
19568;BMP280;9930;49.240;8.548;2024-03-02T12:39:23;99113.69;;;17.66
19568;BMP280;9930;49.240;8.548;2024-03-02T12:41:50;99116.16;;;17.75
19568;BMP280;9930;49.240;8.548;2024-03-02T12:44:20;99128.09;;;17.84
19568;BMP280;9930;49.240;8.548;2024-03-02T12:46:47;99108.34;;;17.83
19568;BMP280;9930;49.240;8.548;2024-03-02T12:49:14;99114.31;;;17.87
19568;BMP280;9930;49.240;8.548;2024-03-02T12:51:46;99104.88;;;17.86
19568;BMP280;9930;49.240;8.548;2024-03-02T12:54:17;99106.44;;;17.96
19568;BMP280;9930;49.240;8.548;2024-03-02T12:56:43;99110.72;;;17.98
19568;BMP280;9930;49.240;8.548;2024-03-02T12:59:21;99104.72;;;17.96
19568;BMP280;9930;49.240;8.548;2024-03-02T13:01:53;99104.75;;;17.95
19568;BMP280;9930;49.240;8.548;2024-03-02T13:04:27;99109.81;;;18.01
19568;BMP280;9930;49.240;8.548;2024-03-02T13:06:55;99108.97;;;18.00
19568;BMP280;9930;49.240;8.548;2024-03-02T13:09:25;99096.94;;;17.99
19568;BMP280;9930;49.240;8.548;2024-03-02T13:11:52;99103.81;;;18.00
19568;BMP280;9930;49.240;8.548;2024-03-02T13:14:18;99097.75;;;18.03
19568;BMP280;9930;49.240;8.548;2024-03-02T13:16:44;99088.31;;;18.02
19568;BMP280;9930;49.240;8.548;2024-03-02T13:19:13;99079.69;;;18.04
19568;BMP280;9930;49.240;8.548;2024-03-02T13:21:39;99095.94;;;18.09
19568;BMP280;9930;49.240;8.548;2024-03-02T13:24:05;99083.97;;;18.04
19568;BMP280;9930;49.240;8.548;2024-03-02T13:26:31;99079.66;;;18.06
19568;BMP280;9930;49.240;8.548;2024-03-02T13:28:57;99080.44;;;18.11
19568;BMP280;9930;49.240;8.548;2024-03-02T13:31:23;99077.03;;;18.09
19568;BMP280;9930;49.240;8.548;2024-03-02T13:33:49;99064.25;;;18.01
19568;BMP280;9930;49.240;8.548;2024-03-02T13:36:14;99062.50;;;18.03
19568;BMP280;9930;49.240;8.548;2024-03-02T13:38:40;99072.75;;;18.08
19568;BMP280;9930;49.240;8.548;2024-03-02T13:41:06;99068.41;;;18.11
19568;BMP280;9930;49.240;8.548;2024-03-02T13:43:31;99061.59;;;18.06
19568;BMP280;9930;49.240;8.548;2024-03-02T13:46:04;99064.91;;;18.14
19568;BMP280;9930;49.240;8.548;2024-03-02T13:48:29;99062.31;;;18.16
19568;BMP280;9930;49.240;8.548;2024-03-02T13:50:57;99057.22;;;18.11
19568;BMP280;9930;49.240;8.548;2024-03-02T13:53:23;99052.94;;;18.10
19568;BMP280;9930;49.240;8.548;2024-03-02T13:55:49;99059.75;;;18.16
19568;BMP280;9930;49.240;8.548;2024-03-02T13:58:14;99052.88;;;18.15
19568;BMP280;9930;49.240;8.548;2024-03-02T14:00:40;99061.41;;;18.18
19568;BMP280;9930;49.240;8.548;2024-03-02T14:03:06;99050.28;;;18.16
19568;BMP280;9930;49.240;8.548;2024-03-02T14:05:33;99039.16;;;18.11
19568;BMP280;9930;49.240;8.548;2024-03-02T14:07:58;99051.09;;;18.18
19568;BMP280;9930;49.240;8.548;2024-03-02T14:10:26;99036.53;;;18.16
19568;BMP280;9930;49.240;8.548;2024-03-02T14:12:53;99044.19;;;18.20
19568;BMP280;9930;49.240;8.548;2024-03-02T14:15:22;99038.16;;;18.21
19568;BMP280;9930;49.240;8.548;2024-03-02T14:17:48;99026.19;;;18.17
19568;BMP280;9930;49.240;8.548;2024-03-02T14:20:16;99038.97;;;18.25
19568;BMP280;9930;49.240;8.548;2024-03-02T14:22:48;99035.47;;;18.27
19568;BMP280;9930;49.240;8.548;2024-03-02T14:25:14;99025.16;;;18.27
19568;BMP280;9930;49.240;8.548;2024-03-02T14:27:39;99032.00;;;18.30
19568;BMP280;9930;49.240;8.548;2024-03-02T14:30:06;99025.97;;;18.29
19568;BMP280;9930;49.240;8.548;2024-03-02T14:32:32;99018.31;;;18.25
19568;BMP280;9930;49.240;8.548;2024-03-02T14:34:58;99019.97;;;18.29
19568;BMP280;9930;49.240;8.548;2024-03-02T14:37:23;99017.31;;;18.33
19568;BMP280;9930;49.240;8.548;2024-03-02T14:39:49;99003.69;;;18.25
19568;BMP280;9930;49.240;8.548;2024-03-02T14:42:15;99005.31;;;18.31